createdAt,value
2022-11-04T00:02:43.617Z,85.46
2022-11-04T00:08:07.571Z,86.03
2022-11-04T00:13:16.832Z,86.45
2022-11-04T00:18:23.395Z,87.63
2022-11-04T00:23:50.045Z,88.71
2022-11-04T00:28:57.969Z,88.77
2022-11-04T00:34:04.858Z,89.33
2022-11-04T00:39:11.849Z,89.11
2022-11-04T00:44:19.896Z,89.10
2022-11-04T00:49:26.361Z,88.40
2022-11-04T00:54:32.840Z,88.67
2022-11-04T00:59:41.060Z,88.23
2022-11-04T01:04:48.898Z,87.65
2022-11-04T01:09:55.780Z,87.58
2022-11-04T01:15:03.826Z,86.97
2022-11-04T01:20:13.754Z,86.51
2022-11-04T01:25:20.526Z,85.80
2022-11-04T01:30:28.667Z,85.38
2022-11-04T01:35:35.349Z,84.21
2022-11-04T01:40:42.683Z,83.93
2022-11-04T01:45:55.293Z,83.50
2022-11-04T01:51:02.640Z,83.16
2022-11-04T01:56:14.626Z,83.16
2022-11-04T02:01:22.996Z,83.00
2022-11-04T02:06:29.531Z,82.74
2022-11-04T02:11:53.408Z,82.29
2022-11-04T02:17:14.758Z,82.11
2022-11-04T02:23:09.395Z,82.18
2022-11-04T02:28:47.795Z,82.06
2022-11-04T02:34:06.848Z,82.63
2022-11-04T02:39:26.558Z,82.44
2022-11-04T02:44:37.132Z,82.04
2022-11-04T02:49:53.251Z,81.65
2022-11-04T02:55:06.177Z,82.07
2022-11-04T03:00:15.940Z,81.76
2022-11-04T03:05:28.571Z,82.05
2022-11-04T03:10:40.377Z,82.14
2022-11-04T03:15:53.920Z,82.09
2022-11-04T03:21:07.675Z,81.83
2022-11-04T03:26:35.561Z,81.49
2022-11-04T03:31:49.238Z,80.60
2022-11-04T03:36:57.555Z,80.82
2022-11-04T03:42:20.901Z,80.84
2022-11-04T03:47:31.201Z,80.19
2022-11-04T03:52:40.147Z,80.83
2022-11-04T03:57:53.819Z,81.20
2022-11-04T04:03:10.629Z,81.73
2022-11-04T04:08:30.625Z,81.47
2022-11-04T04:13:42.852Z,81.88
2022-11-04T04:18:57.554Z,82.09
2022-11-04T04:24:28.478Z,82.06
2022-11-04T04:29:35.552Z,81.29
2022-11-04T04:34:42.379Z,81.44
2022-11-04T04:40:13.026Z,81.21
2022-11-04T04:45:26.766Z,80.75
2022-11-04T04:50:42.675Z,81.01
2022-11-04T04:55:50.590Z,81.85
2022-11-04T05:00:57.212Z,82.77
2022-11-04T05:06:03.630Z,83.34
2022-11-04T05:11:11.845Z,83.57
2022-11-04T05:16:18.559Z,83.07
2022-11-04T05:21:25.142Z,82.89
2022-11-04T05:26:33.184Z,82.20
2022-11-04T05:31:39.792Z,82.19
2022-11-04T05:36:46.138Z,81.57
2022-11-04T05:41:54.073Z,81.83
2022-11-04T05:47:00.845Z,82.07
2022-11-04T05:52:08.569Z,82.14
2022-11-04T05:57:16.286Z,81.30
2022-11-04T06:02:23.151Z,81.47
2022-11-04T06:07:29.955Z,81.75
2022-11-04T06:12:37.868Z,81.21
2022-11-04T06:17:44.481Z,81.05
2022-11-04T06:22:51.772Z,80.93
2022-11-04T06:28:00.168Z,80.64
2022-11-04T06:33:06.767Z,81.04
2022-11-04T06:38:13.474Z,81.24
2022-11-04T06:43:21.480Z,81.19
2022-11-04T06:48:28.625Z,82.01
2022-11-04T06:53:35.061Z,81.66
2022-11-04T06:58:43.466Z,81.32
2022-11-04T07:03:52.640Z,81.37
2022-11-04T07:09:01.992Z,81.99
2022-11-04T07:14:11.663Z,82.12
2022-11-04T07:19:18.420Z,81.78
2022-11-04T07:24:25.233Z,81.82
2022-11-04T07:29:33.115Z,81.86
2022-11-04T07:34:39.647Z,81.54
2022-11-04T07:39:46.015Z,81.29
2022-11-04T07:44:53.831Z,80.87
2022-11-04T07:50:01.450Z,80.45
2022-11-04T07:55:14.344Z,80.73
2022-11-04T08:00:22.276Z,79.92
2022-11-04T08:05:28.344Z,79.64
2022-11-04T08:10:34.843Z,80.08
2022-11-04T08:15:42.692Z,79.75
2022-11-04T08:20:52.751Z,79.44
2022-11-04T08:25:59.414Z,79.22
2022-11-04T08:31:09.623Z,79.39
2022-11-04T08:36:19.748Z,78.73
2022-11-04T08:41:29.358Z,78.95
2022-11-04T08:46:40.263Z,78.89
2022-11-04T08:51:49.974Z,78.51
2022-11-04T08:56:56.214Z,79.51
2022-11-04T09:02:07.217Z,80.76
2022-11-04T09:07:14.112Z,80.62
2022-11-04T09:12:20.913Z,81.39
2022-11-04T09:17:29.129Z,82.23
2022-11-04T09:22:36.015Z,82.77
2022-11-04T09:27:42.731Z,82.73
2022-11-04T09:32:52.907Z,82.26
2022-11-04T09:38:02.654Z,80.99
2022-11-04T09:43:28.167Z,80.38
2022-11-04T09:48:42.259Z,80.45
2022-11-04T09:53:53.149Z,80.39
2022-11-04T09:58:59.924Z,79.85
2022-11-04T10:04:26.861Z,79.57
2022-11-04T10:09:46.909Z,79.14
2022-11-04T10:15:32.897Z,78.85
2022-11-04T10:20:54.751Z,77.96
2022-11-04T10:26:10.916Z,77.98
2022-11-04T10:31:22.960Z,77.36
2022-11-04T10:36:31.256Z,76.46
2022-11-04T10:41:41.116Z,76.33
2022-11-04T10:46:57.927Z,76.17
2022-11-04T10:52:06.004Z,76.11
2022-11-04T10:57:13.508Z,75.70
2022-11-04T11:02:20.698Z,76.78
2022-11-04T11:07:39.198Z,75.50
2022-11-04T11:12:52.035Z,74.97
2022-11-04T11:18:15.365Z,73.66
2022-11-04T11:23:47.646Z,73.90
2022-11-04T11:28:59.540Z,74.66
2022-11-04T11:34:15.803Z,74.50
2022-11-04T11:39:28.410Z,74.22
2022-11-04T11:44:44.573Z,74.54
2022-11-04T11:50:08.229Z,74.54
2022-11-04T12:01:03.171Z,73.80
2022-11-04T12:06:31.224Z,73.96
2022-11-04T12:11:54.355Z,73.00
2022-11-04T12:17:16.431Z,72.18
2022-11-04T12:22:35.757Z,70.96
2022-11-04T12:27:53.978Z,72.54
2022-11-04T12:33:22.669Z,72.18
2022-11-04T12:38:51.464Z,71.54
2022-11-04T12:44:07.913Z,72.05
2022-11-04T12:49:52.565Z,72.50
2022-11-04T12:55:19.864Z,73.24
2022-11-04T13:00:28.749Z,74.45
2022-11-04T13:05:45.846Z,75.27
2022-11-04T13:10:59.007Z,73.94
2022-11-04T13:16:12.515Z,73.71
2022-11-04T13:21:23.826Z,73.31
2022-11-04T13:26:30.142Z,73.81
2022-11-04T13:31:50.755Z,73.36
2022-11-04T13:37:11.555Z,72.63
2022-11-04T13:42:48.773Z,72.29
2022-11-04T13:47:59.986Z,73.40
2022-11-04T13:53:07.810Z,75.12
2022-11-04T13:58:25.518Z,76.35
2022-11-04T14:03:54.274Z,75.81
2022-11-04T14:09:53.975Z,73.90
2022-11-04T14:15:18.561Z,73.49
2022-11-04T14:20:34.384Z,73.10
2022-11-04T14:25:42.204Z,73.07
2022-11-04T14:30:52.556Z,73.00
2022-11-04T14:36:31.515Z,72.97
2022-11-04T14:41:55.539Z,73.24
2022-11-04T14:47:15.504Z,72.84
2022-11-04T14:52:31.299Z,72.82
2022-11-04T14:57:43.803Z,72.70
2022-11-04T15:02:59.855Z,72.59
2022-11-04T15:08:33.388Z,72.10
2022-11-04T15:13:47.561Z,72.31
2022-11-04T15:18:54.947Z,72.73
2022-11-04T15:24:03.310Z,72.60
2022-11-04T15:29:13.032Z,72.59
2022-11-04T15:34:20.056Z,72.84
2022-11-04T15:39:33.187Z,72.82
2022-11-04T15:44:46.671Z,72.46
2022-11-04T15:49:56.708Z,72.58
2022-11-04T15:55:06.063Z,72.63
2022-11-04T16:00:26.163Z,72.47
2022-11-04T16:05:35.917Z,73.17
2022-11-04T16:10:44.598Z,73.30
2022-11-04T16:15:53.550Z,74.54
2022-11-04T16:21:01.232Z,76.05
2022-11-04T16:26:12.758Z,77.88
2022-11-04T16:31:30.470Z,77.46
2022-11-04T16:36:36.648Z,77.52
2022-11-04T16:41:44.707Z,77.51
2022-11-04T16:46:51.504Z,76.92
2022-11-04T16:52:03.011Z,76.97
2022-11-04T16:57:14.850Z,76.83
2022-11-04T17:02:28.065Z,76.44
2022-11-04T17:07:52.090Z,76.70
2022-11-04T17:13:01.531Z,77.81
2022-11-04T17:18:08.464Z,77.40
2022-11-04T17:23:17.833Z,76.65
2022-11-04T17:28:27.481Z,76.50
2022-11-04T17:33:34.513Z,76.86
2022-11-04T17:38:41.158Z,76.83
2022-11-04T17:44:03.819Z,76.89
2022-11-04T17:56:05.865Z,76.74
2022-11-04T18:01:17.758Z,77.11
2022-11-04T18:06:25.401Z,76.63
2022-11-04T18:11:50.392Z,76.63
2022-11-04T18:17:25.176Z,77.00
2022-11-04T18:22:57.842Z,77.09
2022-11-04T18:28:10.881Z,76.85
2022-11-04T18:39:20.898Z,77.25
2022-11-04T18:44:31.653Z,78.10
2022-11-04T18:49:49.610Z,77.29
2022-11-04T18:54:58.749Z,77.86
2022-11-04T19:00:10.562Z,77.94
2022-11-04T19:05:21.262Z,77.18
2022-11-04T19:10:31.114Z,77.86
2022-11-04T19:15:38.334Z,77.69
2022-11-04T19:20:54.777Z,78.27
2022-11-04T19:26:08.497Z,78.19
2022-11-04T19:31:18.239Z,77.98
2022-11-04T19:36:26.885Z,78.52
2022-11-04T19:41:53.438Z,78.47
2022-11-04T19:47:00.416Z,78.22
2022-11-04T19:52:09.549Z,78.48
2022-11-04T19:57:18.543Z,78.72
2022-11-04T20:02:25.732Z,78.74
2022-11-04T20:07:33.917Z,78.37
2022-11-04T20:13:01.760Z,78.71
2022-11-04T20:18:17.774Z,78.94
2022-11-04T20:23:25.082Z,78.89
2022-11-04T20:28:33.633Z,79.21
2022-11-04T20:34:57.855Z,78.82
2022-11-04T20:40:11.894Z,78.62
2022-11-04T20:45:24.415Z,78.49
2022-11-04T20:50:32.648Z,77.97
2022-11-04T20:55:41.984Z,78.44
2022-11-04T21:00:53.899Z,78.51
2022-11-04T21:06:05.995Z,77.88
2022-11-04T21:11:17.134Z,78.06
2022-11-04T21:16:35.667Z,78.03
2022-11-04T21:21:45.702Z,77.96
2022-11-04T21:26:56.803Z,78.06
2022-11-04T21:32:09.949Z,78.13
2022-11-04T21:37:16.668Z,78.14
2022-11-04T21:42:23.567Z,78.16
2022-11-04T21:47:31.854Z,78.23
2022-11-04T21:52:38.162Z,78.06
2022-11-04T21:57:45.283Z,78.24
2022-11-04T22:02:53.669Z,78.25
2022-11-04T22:08:19.043Z,78.39
2022-11-04T22:13:26.352Z,78.58
2022-11-04T22:18:36.054Z,78.02
2022-11-04T22:23:43.020Z,77.94
2022-11-04T22:28:50.015Z,78.34
2022-11-04T22:33:59.022Z,78.53
2022-11-04T22:39:06.826Z,78.77
2022-11-04T22:44:14.562Z,79.05
2022-11-04T22:49:22.517Z,79.41
2022-11-04T22:54:28.687Z,79.35
2022-11-04T22:59:34.822Z,79.23
2022-11-04T23:04:45.375Z,79.17
2022-11-04T23:10:09.091Z,79.04
2022-11-04T23:15:32.201Z,79.00
2022-11-04T23:20:40.396Z,78.86
2022-11-04T23:25:47.010Z,79.37
2022-11-04T23:30:54.572Z,79.02
2022-11-04T23:36:19.748Z,78.98
2022-11-04T23:41:42.787Z,79.41
2022-11-04T23:47:06.064Z,79.94
2022-11-04T23:52:30.499Z,79.86
2022-11-04T23:57:55.419Z,80.18
